sensor_id;sensor_type;location;lat;lon;timestamp;pressure;altitude;pressure_sealevel;temperature;humidity
71043;BME280;58696;52.134;5.500;2023-08-31T00:00:54;100756.13;;;11.29;100.00
71043;BME280;58696;52.134;5.500;2023-08-31T00:03:24;100764.47;;;11.31;100.00
71043;BME280;58696;52.134;5.500;2023-08-31T00:05:51;100769.00;;;11.29;100.00
71043;BME280;58696;52.134;5.500;2023-08-31T00:08:17;100767.63;;;11.33;100.00
71043;BME280;58696;52.134;5.500;2023-08-31T00:10:44;100756.00;;;11.38;100.00
71043;BME280;58696;52.134;5.500;2023-08-31T00:13:11;100763.31;;;11.41;100.00
71043;BME280;58696;52.134;5.500;2023-08-31T00:15:39;100762.38;;;11.42;100.00
71043;BME280;58696;52.134;5.500;2023-08-31T00:18:10;100762.53;;;11.40;100.00
71043;BME280;58696;52.134;5.500;2023-08-31T00:20:42;100760.34;;;11.37;100.00
71043;BME280;58696;52.134;5.500;2023-08-31T00:23:11;100753.59;;;11.36;100.00
71043;BME280;58696;52.134;5.500;2023-08-31T00:25:40;100760.50;;;11.36;100.00
71043;BME280;58696;52.134;5.500;2023-08-31T00:28:09;100752.19;;;11.33;100.00
71043;BME280;58696;52.134;5.500;2023-08-31T00:30:36;100757.72;;;11.30;100.00
71043;BME280;58696;52.134;5.500;2023-08-31T00:33:06;100756.13;;;11.29;100.00
71043;BME280;58696;52.134;5.500;2023-08-31T00:35:38;100750.19;;;11.29;100.00
71043;BME280;58696;52.134;5.500;2023-08-31T00:38:07;100749.81;;;11.32;100.00
71043;BME280;58696;52.134;5.500;2023-08-31T00:40:40;100757.94;;;11.36;100.00
71043;BME280;58696;52.134;5.500;2023-08-31T00:43:15;100755.78;;;11.39;100.00
71043;BME280;58696;52.134;5.500;2023-08-31T00:45:43;100757.03;;;11.43;100.00
71043;BME280;58696;52.134;5.500;2023-08-31T00:48:15;100766.13;;;11.46;100.00
71043;BME280;58696;52.134;5.500;2023-08-31T00:50:49;100771.09;;;11.47;100.00
71043;BME280;58696;52.134;5.500;2023-08-31T00:53:18;100762.78;;;11.52;100.00
71043;BME280;58696;52.134;5.500;2023-08-31T00:55:47;100762.22;;;11.56;100.00
71043;BME280;58696;52.134;5.500;2023-08-31T00:58:13;100756.50;;;11.61;100.00
71043;BME280;58696;52.134;5.500;2023-08-31T01:03:39;100751.81;;;11.71;100.00
71043;BME280;58696;52.134;5.500;2023-08-31T01:09:34;100762.75;;;11.80;100.00
71043;BME280;58696;52.134;5.500;2023-08-31T01:12:11;100758.66;;;11.86;100.00
71043;BME280;58696;52.134;5.500;2023-08-31T01:14:42;100753.50;;;11.86;100.00
71043;BME280;58696;52.134;5.500;2023-08-31T01:17:14;100755.44;;;11.83;100.00
71043;BME280;58696;52.134;5.500;2023-08-31T01:19:48;100754.88;;;11.81;100.00
71043;BME280;58696;52.134;5.500;2023-08-31T01:22:25;100752.28;;;11.81;100.00
71043;BME280;58696;52.134;5.500;2023-08-31T01:24:54;100757.44;;;11.81;100.00
71043;BME280;58696;52.134;5.500;2023-08-31T01:27:23;100757.03;;;11.84;100.00
71043;BME280;58696;52.134;5.500;2023-08-31T01:29:54;100759.63;;;11.84;100.00
71043;BME280;58696;52.134;5.500;2023-08-31T01:32:23;100756.06;;;11.86;100.00
71043;BME280;58696;52.134;5.500;2023-08-31T01:34:51;100753.50;;;11.86;100.00
71043;BME280;58696;52.134;5.500;2023-08-31T01:37:27;100759.81;;;11.83;100.00
71043;BME280;58696;52.134;5.500;2023-08-31T01:39:58;100756.78;;;11.79;100.00
71043;BME280;58696;52.134;5.500;2023-08-31T01:42:31;100757.78;;;11.78;100.00
71043;BME280;58696;52.134;5.500;2023-08-31T01:44:58;100761.75;;;11.81;100.00
71043;BME280;58696;52.134;5.500;2023-08-31T01:47:29;100770.91;;;11.83;100.00
71043;BME280;58696;52.134;5.500;2023-08-31T01:49:57;100775.84;;;11.85;100.00
71043;BME280;58696;52.134;5.500;2023-08-31T01:52:28;100793.28;;;11.83;100.00
71043;BME280;58696;52.134;5.500;2023-08-31T01:54:57;100796.66;;;11.83;100.00
71043;BME280;58696;52.134;5.500;2023-08-31T01:57:28;100800.81;;;11.84;100.00
71043;BME280;58696;52.134;5.500;2023-08-31T01:59:55;100817.28;;;11.90;100.00
71043;BME280;58696;52.134;5.500;2023-08-31T02:02:22;100813.53;;;11.93;100.00
71043;BME280;58696;52.134;5.500;2023-08-31T02:04:49;100808.19;;;11.94;100.00
71043;BME280;58696;52.134;5.500;2023-08-31T02:07:17;100807.03;;;11.97;100.00
71043;BME280;58696;52.134;5.500;2023-08-31T02:09:44;100799.69;;;12.00;100.00
71043;BME280;58696;52.134;5.500;2023-08-31T02:12:13;100795.56;;;12.06;100.00
71043;BME280;58696;52.134;5.500;2023-08-31T02:14:39;100801.94;;;12.10;100.00
71043;BME280;58696;52.134;5.500;2023-08-31T02:17:06;100790.63;;;12.11;100.00
71043;BME280;58696;52.134;5.500;2023-08-31T02:19:35;100789.47;;;12.14;100.00
71043;BME280;58696;52.134;5.500;2023-08-31T02:22:03;100785.31;;;12.19;100.00
71043;BME280;58696;52.134;5.500;2023-08-31T02:24:30;100788.28;;;12.23;100.00
71043;BME280;58696;52.134;5.500;2023-08-31T02:26:59;100794.84;;;12.25;100.00
71043;BME280;58696;52.134;5.500;2023-08-31T02:29:28;100788.50;;;12.28;100.00
71043;BME280;58696;52.134;5.500;2023-08-31T02:31:57;100789.91;;;12.30;100.00
71043;BME280;58696;52.134;5.500;2023-08-31T02:34:24;100790.28;;;12.34;100.00
71043;BME280;58696;52.134;5.500;2023-08-31T02:36:50;100798.84;;;12.34;100.00
71043;BME280;58696;52.134;5.500;2023-08-31T02:39:17;100784.34;;;12.33;100.00
71043;BME280;58696;52.134;5.500;2023-08-31T02:41:43;100785.91;;;12.28;100.00
71043;BME280;58696;52.134;5.500;2023-08-31T02:44:11;100776.59;;;12.20;100.00
71043;BME280;58696;52.134;5.500;2023-08-31T02:46:40;100777.38;;;12.14;100.00
71043;BME280;58696;52.134;5.500;2023-08-31T02:49:14;100780.31;;;12.11;100.00
71043;BME280;58696;52.134;5.500;2023-08-31T02:51:40;100779.72;;;12.09;100.00
71043;BME280;58696;52.134;5.500;2023-08-31T02:54:09;100779.16;;;12.07;100.00
71043;BME280;58696;52.134;5.500;2023-08-31T02:56:36;100774.94;;;12.06;100.00
71043;BME280;58696;52.134;5.500;2023-08-31T02:59:05;100774.38;;;12.04;100.00
71043;BME280;58696;52.134;5.500;2023-08-31T03:01:31;100775.34;;;12.03;100.00
71043;BME280;58696;52.134;5.500;2023-08-31T03:04:01;100767.00;;;12.01;100.00
71043;BME280;58696;52.134;5.500;2023-08-31T03:06:28;100773.34;;;11.98;100.00
71043;BME280;58696;52.134;5.500;2023-08-31T03:08:57;100767.00;;;11.94;100.00
71043;BME280;58696;52.134;5.500;2023-08-31T03:11:26;100767.19;;;11.93;100.00
71043;BME280;58696;52.134;5.500;2023-08-31T03:13:52;100768.97;;;11.92;100.00
71043;BME280;58696;52.134;5.500;2023-08-31T03:16:19;100774.31;;;11.91;100.00
71043;BME280;58696;52.134;5.500;2023-08-31T03:18:51;100782.06;;;11.91;100.00
71043;BME280;58696;52.134;5.500;2023-08-31T03:21:20;100771.13;;;11.89;100.00
71043;BME280;58696;52.134;5.500;2023-08-31T03:23:49;100770.53;;;11.87;100.00
71043;BME280;58696;52.134;5.500;2023-08-31T03:26:20;100770.13;;;11.83;100.00
71043;BME280;58696;52.134;5.500;2023-08-31T03:28:49;100783.19;;;11.81;100.00
71043;BME280;58696;52.134;5.500;2023-08-31T03:31:15;100782.38;;;11.81;100.00
71043;BME280;58696;52.134;5.500;2023-08-31T03:33:42;100782.72;;;11.78;100.00
71043;BME280;58696;52.134;5.500;2023-08-31T03:36:09;100782.72;;;11.78;100.00
71043;BME280;58696;52.134;5.500;2023-08-31T03:38:37;100778.56;;;11.77;100.00
71043;BME280;58696;52.134;5.500;2023-08-31T03:41:07;100766.50;;;11.77;100.00
71043;BME280;58696;52.134;5.500;2023-08-31T03:43:38;100771.66;;;11.77;100.00
71043;BME280;58696;52.134;5.500;2023-08-31T03:46:05;100770.84;;;11.77;100.00
71043;BME280;58696;52.134;5.500;2023-08-31T03:48:31;100766.06;;;11.74;100.00
71043;BME280;58696;52.134;5.500;2023-08-31T03:51:00;100781.13;;;11.70;100.00
71043;BME280;58696;52.134;5.500;2023-08-31T03:53:27;100777.13;;;11.68;100.00
71043;BME280;58696;52.134;5.500;2023-08-31T03:55:56;100799.94;;;11.71;100.00
71043;BME280;58696;52.134;5.500;2023-08-31T03:58:25;100793.59;;;11.73;100.00
71043;BME280;58696;52.134;5.500;2023-08-31T04:00:52;100792.44;;;11.76;100.00
71043;BME280;58696;52.134;5.500;2023-08-31T04:03:18;100788.28;;;11.75;100.00
71043;BME280;58696;52.134;5.500;2023-08-31T04:05:48;100784.91;;;11.74;100.00
71043;BME280;58696;52.134;5.500;2023-08-31T04:08:19;100787.50;;;11.74;100.00
71043;BME280;58696;52.134;5.500;2023-08-31T04:10:50;100789.44;;;11.72;100.00
71043;BME280;58696;52.134;5.500;2023-08-31T04:13:19;100797.78;;;11.74;100.00
71043;BME280;58696;52.134;5.500;2023-08-31T04:15:46;100791.81;;;11.74;100.00
71043;BME280;58696;52.134;5.500;2023-08-31T04:18:13;100800.16;;;11.76;100.00
71043;BME280;58696;52.134;5.500;2023-08-31T04:20:47;100801.75;;;11.77;100.00
71043;BME280;58696;52.134;5.500;2023-08-31T04:23:14;100798.97;;;11.78;100.00
71043;BME280;58696;52.134;5.500;2023-08-31T04:25:41;100799.97;;;11.77;100.00
71043;BME280;58696;52.134;5.500;2023-08-31T04:28:10;100796.41;;;11.78;100.00
71043;BME280;58696;52.134;5.500;2023-08-31T04:30:42;100799.59;;;11.80;100.00
71043;BME280;58696;52.134;5.500;2023-08-31T04:33:12;100803.59;;;11.83;100.00
71043;BME280;58696;52.134;5.500;2023-08-31T04:35:41;100803.38;;;11.84;100.00
71043;BME280;58696;52.134;5.500;2023-08-31T04:38:08;100811.75;;;11.87;100.00
71043;BME280;58696;52.134;5.500;2023-08-31T04:40:37;100810.53;;;11.89;100.00
71043;BME280;58696;52.134;5.500;2023-08-31T04:43:07;100814.53;;;11.92;100.00
71043;BME280;58696;52.134;5.500;2023-08-31T04:45:33;100812.56;;;11.94;100.00
71043;BME280;58696;52.134;5.500;2023-08-31T04:48:00;100822.66;;;11.95;100.00
71043;BME280;58696;52.134;5.500;2023-08-31T04:50:27;100819.13;;;11.96;100.00
71043;BME280;58696;52.134;5.500;2023-08-31T04:52:53;100825.84;;;11.97;100.00
71043;BME280;58696;52.134;5.500;2023-08-31T04:55:24;100824.66;;;12.00;100.00
71043;BME280;58696;52.134;5.500;2023-08-31T04:57:53;100834.75;;;12.01;100.00
71043;BME280;58696;52.134;5.500;2023-08-31T05:00:26;100843.91;;;12.04;100.00
71043;BME280;58696;52.134;5.500;2023-08-31T05:02:56;100839.34;;;12.06;100.00
71043;BME280;58696;52.134;5.500;2023-08-31T05:05:23;100838.97;;;12.09;100.00
71043;BME280;58696;52.134;5.500;2023-08-31T05:07:52;100837.78;;;12.11;100.00
71043;BME280;58696;52.134;5.500;2023-08-31T05:10:19;100849.50;;;12.14;100.00
71043;BME280;58696;52.134;5.500;2023-08-31T05:12:48;100849.50;;;12.14;100.00
71043;BME280;58696;52.134;5.500;2023-08-31T05:15:17;100856.25;;;12.15;100.00
71043;BME280;58696;52.134;5.500;2023-08-31T05:17:48;100858.81;;;12.15;100.00
71043;BME280;58696;52.134;5.500;2023-08-31T05:20:19;100850.09;;;12.16;100.00
71043;BME280;58696;52.134;5.500;2023-08-31T05:22:47;100848.31;;;12.17;100.00
71043;BME280;58696;52.134;5.500;2023-08-31T05:25:14;100857.63;;;12.18;100.00
71043;BME280;58696;52.134;5.500;2023-08-31T05:27:41;100857.47;;;12.19;100.00
71043;BME280;58696;52.134;5.500;2023-08-31T05:30:12;100866.56;;;12.22;100.00
71043;BME280;58696;52.134;5.500;2023-08-31T05:32:41;100871.34;;;12.25;100.00
71043;BME280;58696;52.134;5.500;2023-08-31T05:35:08;100877.13;;;12.33;100.00
71043;BME280;58696;52.134;5.500;2023-08-31T05:37:37;100874.75;;;12.38;100.00
71043;BME280;58696;52.134;5.500;2023-08-31T05:40:04;100877.56;;;12.44;100.00
71043;BME280;58696;52.134;5.500;2023-08-31T05:42:33;100880.16;;;12.50;100.00
71043;BME280;58696;52.134;5.500;2023-08-31T05:44:59;100875.22;;;12.55;100.00
71043;BME280;58696;52.134;5.500;2023-08-31T05:47:26;100874.28;;;12.63;100.00
71043;BME280;58696;52.134;5.500;2023-08-31T05:49:52;100879.22;;;12.71;100.00
71043;BME280;58696;52.134;5.500;2023-08-31T05:52:21;100884.81;;;12.75;100.00
71043;BME280;58696;52.134;5.500;2023-08-31T05:54:48;100885.22;;;12.78;100.00
71043;BME280;58696;52.134;5.500;2023-08-31T05:57:18;100883.44;;;12.79;100.00
71043;BME280;58696;52.134;5.500;2023-08-31T05:59:48;100885.44;;;12.83;100.00
71043;BME280;58696;52.134;5.500;2023-08-31T06:02:17;100882.88;;;12.90;100.00
71043;BME280;58696;52.134;5.500;2023-08-31T06:04:44;100888.22;;;12.95;100.00
71043;BME280;58696;52.134;5.500;2023-08-31T06:07:10;100902.50;;;12.98;100.00
71043;BME280;58696;52.134;5.500;2023-08-31T06:09:39;100900.53;;;13.00;100.00
71043;BME280;58696;52.134;5.500;2023-08-31T06:12:11;100913.25;;;13.01;100.00
71043;BME280;58696;52.134;5.500;2023-08-31T06:14:39;100925.53;;;12.99;100.00
71043;BME280;58696;52.134;5.500;2023-08-31T06:17:11;100927.09;;;12.94;100.00
71043;BME280;58696;52.134;5.500;2023-08-31T06:19:39;100915.59;;;12.89;100.00
71043;BME280;58696;52.134;5.500;2023-08-31T06:22:08;100911.22;;;12.90;100.00
71043;BME280;58696;52.134;5.500;2023-08-31T06:24:37;100908.88;;;12.95;100.00
71043;BME280;58696;52.134;5.500;2023-08-31T06:27:06;100910.88;;;13.00;100.00
71043;BME280;58696;52.134;5.500;2023-08-31T06:29:33;100910.06;;;13.06;100.00
71043;BME280;58696;52.134;5.500;2023-08-31T06:32:01;100920.00;;;13.09;100.00
71043;BME280;58696;52.134;5.500;2023-08-31T06:34:28;100917.25;;;13.17;100.00
71043;BME280;58696;52.134;5.500;2023-08-31T06:36:57;100913.47;;;13.20;100.00
71043;BME280;58696;52.134;5.500;2023-08-31T06:39:29;100916.84;;;13.20;100.00
71043;BME280;58696;52.134;5.500;2023-08-31T06:41:58;100914.69;;;13.30;100.00
71043;BME280;58696;52.134;5.500;2023-08-31T06:44:25;100917.69;;;13.34;100.00
71043;BME280;58696;52.134;5.500;2023-08-31T06:46:51;100911.31;;;13.30;100.00
71043;BME280;58696;52.134;5.500;2023-08-31T06:49:19;100910.13;;;13.26;100.00
71043;BME280;58696;52.134;5.500;2023-08-31T06:51:45;100918.06;;;13.24;100.00
71043;BME280;58696;52.134;5.500;2023-08-31T06:54:14;100922.44;;;13.24;100.00
71043;BME280;58696;52.134;5.500;2023-08-31T06:56:41;100922.19;;;13.19;100.00
71043;BME280;58696;52.134;5.500;2023-08-31T06:59:08;100926.81;;;13.23;100.00
71043;BME280;58696;52.134;5.500;2023-08-31T07:01:35;100923.84;;;13.59;100.00
71043;BME280;58696;52.134;5.500;2023-08-31T07:04:01;100931.34;;;14.01;100.00
71043;BME280;58696;52.134;5.500;2023-08-31T07:06:33;100935.91;;;14.05;100.00
71043;BME280;58696;52.134;5.500;2023-08-31T07:09:02;100943.00;;;14.36;100.00
71043;BME280;58696;52.134;5.500;2023-08-31T07:11:29;100932.56;;;14.63;100.00
71043;BME280;58696;52.134;5.500;2023-08-31T07:13:56;100942.31;;;14.61;100.00
71043;BME280;58696;52.134;5.500;2023-08-31T07:16:24;100942.88;;;15.39;100.00
71043;BME280;58696;52.134;5.500;2023-08-31T07:18:53;100942.34;;;15.56;100.00
71043;BME280;58696;52.134;5.500;2023-08-31T07:21:24;100941.63;;;15.17;100.00
71043;BME280;58696;52.134;5.500;2023-08-31T07:23:53;100950.91;;;14.93;100.00
71043;BME280;58696;52.134;5.500;2023-08-31T07:26:21;100946.44;;;14.75;100.00
71043;BME280;58696;52.134;5.500;2023-08-31T07:28:48;100953.44;;;14.68;100.00
71043;BME280;58696;52.134;5.500;2023-08-31T07:31:15;100962.78;;;14.62;100.00
71043;BME280;58696;52.134;5.500;2023-08-31T07:33:43;100956.44;;;14.65;100.00
71043;BME280;58696;52.134;5.500;2023-08-31T07:36:12;100955.44;;;14.66;100.00
71043;BME280;58696;52.134;5.500;2023-08-31T07:38:41;100958.41;;;14.69;100.00
71043;BME280;58696;52.134;5.500;2023-08-31T07:41:08;100968.66;;;14.89;100.00
71043;BME280;58696;52.134;5.500;2023-08-31T07:43:37;100965.31;;;14.82;100.00
71043;BME280;58696;52.134;5.500;2023-08-31T07:46:10;100960.06;;;14.57;100.00
71043;BME280;58696;52.134;5.500;2023-08-31T07:48:37;100960.84;;;14.51;100.00
71043;BME280;58696;52.134;5.500;2023-08-31T07:51:07;100966.13;;;15.71;100.00
71043;BME280;58696;52.134;5.500;2023-08-31T07:53:36;100967.72;;;17.42;96.16
71043;BME280;58696;52.134;5.500;2023-08-31T07:56:03;100972.38;;;17.64;92.48
71043;BME280;58696;52.134;5.500;2023-08-31T07:58:30;100976.06;;;17.32;90.30
71043;BME280;58696;52.134;5.500;2023-08-31T08:00:56;100987.81;;;16.56;93.41
71043;BME280;58696;52.134;5.500;2023-08-31T08:03:23;100976.44;;;16.02;95.20
71043;BME280;58696;52.134;5.500;2023-08-31T08:05:53;100980.94;;;15.64;97.11
71043;BME280;58696;52.134;5.500;2023-08-31T08:08:19;100981.91;;;15.38;97.36
71043;BME280;58696;52.134;5.500;2023-08-31T08:10:54;100987.19;;;15.24;98.37
71043;BME280;58696;52.134;5.500;2023-08-31T08:13:21;100983.47;;;15.14;99.04
71043;BME280;58696;52.134;5.500;2023-08-31T08:15:50;100988.25;;;15.10;99.31
71043;BME280;58696;52.134;5.500;2023-08-31T08:18:19;100987.81;;;15.20;99.61
71043;BME280;58696;52.134;5.500;2023-08-31T08:20:50;100990.28;;;15.40;99.01
71043;BME280;58696;52.134;5.500;2023-08-31T08:23:17;100992.75;;;16.28;98.98
71043;BME280;58696;52.134;5.500;2023-08-31T08:25:43;100996.88;;;17.44;93.82
71043;BME280;58696;52.134;5.500;2023-08-31T08:28:12;101006.34;;;17.39;91.48
71043;BME280;58696;52.134;5.500;2023-08-31T08:30:39;101003.66;;;17.03;93.82
71043;BME280;58696;52.134;5.500;2023-08-31T08:33:09;101009.13;;;18.37;91.96
71043;BME280;58696;52.134;5.500;2023-08-31T08:35:39;101007.69;;;19.10;87.50
71043;BME280;58696;52.134;5.500;2023-08-31T08:38:08;101010.06;;;18.08;87.71
71043;BME280;58696;52.134;5.500;2023-08-31T08:40:35;101012.09;;;17.29;89.38
71043;BME280;58696;52.134;5.500;2023-08-31T08:43:05;101003.69;;;16.85;92.28
71043;BME280;58696;52.134;5.500;2023-08-31T08:45:39;101016.88;;;16.65;93.92
71043;BME280;58696;52.134;5.500;2023-08-31T08:48:10;101012.06;;;16.87;94.33
71043;BME280;58696;52.134;5.500;2023-08-31T08:50:40;101019.25;;;16.85;93.96
71043;BME280;58696;52.134;5.500;2023-08-31T08:53:06;101019.69;;;16.64;94.85
71043;BME280;58696;52.134;5.500;2023-08-31T08:55:35;101021.72;;;16.43;95.38
71043;BME280;58696;52.134;5.500;2023-08-31T08:58:02;101024.16;;;16.38;97.12
71043;BME280;58696;52.134;5.500;2023-08-31T09:00:30;101019.53;;;16.40;97.89
71043;BME280;58696;52.134;5.500;2023-08-31T09:02:58;101022.94;;;16.59;96.82
71043;BME280;58696;52.134;5.500;2023-08-31T09:05:25;101023.88;;;16.65;95.74
71043;BME280;58696;52.134;5.500;2023-08-31T09:10:41;101019.47;;;17.02;96.15
71043;BME280;58696;52.134;5.500;2023-08-31T09:13:11;101020.53;;;17.66;94.90
71043;BME280;58696;52.134;5.500;2023-08-31T09:15:43;101017.31;;;17.94;93.72
71043;BME280;58696;52.134;5.500;2023-08-31T09:18:14;101015.16;;;18.14;93.72
71043;BME280;58696;52.134;5.500;2023-08-31T09:20:45;101015.53;;;18.58;92.54
71043;BME280;58696;52.134;5.500;2023-08-31T09:23:16;101008.03;;;19.02;92.42
71043;BME280;58696;52.134;5.500;2023-08-31T09:25:47;101015.81;;;18.85;88.41
71043;BME280;58696;52.134;5.500;2023-08-31T09:28:20;101022.03;;;18.21;89.74
71043;BME280;58696;52.134;5.500;2023-08-31T09:30:50;101021.38;;;17.90;90.45
71043;BME280;58696;52.134;5.500;2023-08-31T09:33:33;101015.69;;;17.70;91.99
71043;BME280;58696;52.134;5.500;2023-08-31T09:36:00;101018.13;;;17.53;92.64
71043;BME280;58696;52.134;5.500;2023-08-31T09:38:27;101027.78;;;17.34;92.82
71043;BME280;58696;52.134;5.500;2023-08-31T09:41:04;101026.72;;;17.12;93.11
71043;BME280;58696;52.134;5.500;2023-08-31T09:43:32;101019.97;;;16.92;94.68
71043;BME280;58696;52.134;5.500;2023-08-31T09:46:00;101030.00;;;16.70;95.54
71043;BME280;58696;52.134;5.500;2023-08-31T09:48:29;101024.38;;;16.55;95.67
71043;BME280;58696;52.134;5.500;2023-08-31T09:50:57;101024.88;;;16.45;96.80
71043;BME280;58696;52.134;5.500;2023-08-31T09:53:32;101029.06;;;16.65;97.99
71043;BME280;58696;52.134;5.500;2023-08-31T09:56:00;101019.03;;;17.17;96.82
71043;BME280;58696;52.134;5.500;2023-08-31T09:58:30;101019.72;;;17.66;95.55
71043;BME280;58696;52.134;5.500;2023-08-31T10:01:00;101024.88;;;17.84;92.80
71043;BME280;58696;52.134;5.500;2023-08-31T10:03:39;101019.56;;;18.02;91.25
71043;BME280;58696;52.134;5.500;2023-08-31T10:06:06;101029.06;;;18.20;92.36
71043;BME280;58696;52.134;5.500;2023-08-31T10:08:33;101028.94;;;18.38;92.73
71043;BME280;58696;52.134;5.500;2023-08-31T10:11:01;101020.53;;;18.60;90.06
71043;BME280;58696;52.134;5.500;2023-08-31T10:13:31;101023.94;;;18.49;89.80
71043;BME280;58696;52.134;5.500;2023-08-31T10:16:06;101022.78;;;18.56;88.21
71043;BME280;58696;52.134;5.500;2023-08-31T10:18:36;101022.03;;;18.21;86.13
71043;BME280;58696;52.134;5.500;2023-08-31T10:21:03;101028.50;;;18.06;85.31
71043;BME280;58696;52.134;5.500;2023-08-31T10:23:32;101021.91;;;18.51;86.19
71043;BME280;58696;52.134;5.500;2023-08-31T10:26:00;101019.34;;;18.79;83.45
71043;BME280;58696;52.134;5.500;2023-08-31T10:28:40;101024.06;;;18.94;80.88
71043;BME280;58696;52.134;5.500;2023-08-31T10:33:44;101014.72;;;19.10;77.78
71043;BME280;58696;52.134;5.500;2023-08-31T10:36:16;101021.03;;;19.14;75.28
71043;BME280;58696;52.134;5.500;2023-08-31T10:39:05;101014.19;;;18.96;73.23
71043;BME280;58696;52.134;5.500;2023-08-31T10:41:37;101028.44;;;19.05;72.41
71043;BME280;58696;52.134;5.500;2023-08-31T10:44:22;101021.81;;;19.14;72.71
71043;BME280;58696;52.134;5.500;2023-08-31T10:46:50;101019.22;;;19.14;72.45
71043;BME280;58696;52.134;5.500;2023-08-31T10:49:21;101022.38;;;19.16;73.49
71043;BME280;58696;52.134;5.500;2023-08-31T10:51:57;101028.28;;;19.57;75.44
71043;BME280;58696;52.134;5.500;2023-08-31T10:54:33;101022.22;;;19.68;72.47
71043;BME280;58696;52.134;5.500;2023-08-31T10:57:06;101013.19;;;19.76;70.18
71043;BME280;58696;52.134;5.500;2023-08-31T10:59:52;101017.78;;;19.86;71.09
71043;BME280;58696;52.134;5.500;2023-08-31T11:02:36;101020.22;;;19.76;67.73
71043;BME280;58696;52.134;5.500;2023-08-31T11:05:11;101012.00;;;19.67;67.15
71043;BME280;58696;52.134;5.500;2023-08-31T11:07:40;101024.59;;;19.70;67.29
71043;BME280;58696;52.134;5.500;2023-08-31T11:12:39;101019.03;;;19.83;66.59
71043;BME280;58696;52.134;5.500;2023-08-31T11:15:11;101024.66;;;19.75;64.27
71043;BME280;58696;52.134;5.500;2023-08-31T11:17:41;101023.47;;;19.66;62.73
71043;BME280;58696;52.134;5.500;2023-08-31T11:20:13;101029.88;;;19.75;63.81
71043;BME280;58696;52.134;5.500;2023-08-31T11:22:45;101025.59;;;19.52;62.53
71043;BME280;58696;52.134;5.500;2023-08-31T11:25:13;101031.00;;;19.51;64.04
71043;BME280;58696;52.134;5.500;2023-08-31T11:27:40;101026.47;;;19.75;62.21
71043;BME280;58696;52.134;5.500;2023-08-31T11:30:16;101021.09;;;19.81;60.84
71043;BME280;58696;52.134;5.500;2023-08-31T11:32:48;101033.09;;;19.82;61.46
71043;BME280;58696;52.134;5.500;2023-08-31T11:35:19;101033.28;;;19.59;60.03
71043;BME280;58696;52.134;5.500;2023-08-31T11:37:50;101027.72;;;19.55;58.60
71043;BME280;58696;52.134;5.500;2023-08-31T11:40:16;101038.13;;;19.55;58.62
71043;BME280;58696;52.134;5.500;2023-08-31T11:42:44;101042.84;;;19.87;57.96
71043;BME280;58696;52.134;5.500;2023-08-31T11:45:14;101028.03;;;19.92;59.11
71043;BME280;58696;52.134;5.500;2023-08-31T11:47:42;101039.38;;;20.20;61.14
71043;BME280;58696;52.134;5.500;2023-08-31T11:50:11;101036.94;;;20.52;60.48
71043;BME280;58696;52.134;5.500;2023-08-31T11:52:42;101035.50;;;20.61;56.03
71043;BME280;58696;52.134;5.500;2023-08-31T11:55:15;101030.28;;;20.61;58.28
71043;BME280;58696;52.134;5.500;2023-08-31T11:57:52;101036.28;;;20.62;55.86
71043;BME280;58696;52.134;5.500;2023-08-31T12:00:22;101038.59;;;20.58;54.45
71043;BME280;58696;52.134;5.500;2023-08-31T12:02:58;101034.34;;;20.52;57.63
71043;BME280;58696;52.134;5.500;2023-08-31T12:05:29;101027.94;;;20.65;53.87
71043;BME280;58696;52.134;5.500;2023-08-31T12:07:56;101034.47;;;20.62;53.56
71043;BME280;58696;52.134;5.500;2023-08-31T12:10:24;101031.78;;;20.57;56.95
71043;BME280;58696;52.134;5.500;2023-08-31T12:12:56;101035.00;;;20.64;55.46
71043;BME280;58696;52.134;5.500;2023-08-31T12:15:40;101031.66;;;20.69;56.14
71043;BME280;58696;52.134;5.500;2023-08-31T12:18:10;101024.59;;;20.91;56.74
71043;BME280;58696;52.134;5.500;2023-08-31T12:20:49;101025.16;;;20.98;55.67
71043;BME280;58696;52.134;5.500;2023-08-31T12:23:18;101037.88;;;21.12;55.33
71043;BME280;58696;52.134;5.500;2023-08-31T12:28:15;101032.09;;;20.83;54.03
71043;BME280;58696;52.134;5.500;2023-08-31T12:30:52;101038.22;;;20.93;54.79
71043;BME280;58696;52.134;5.500;2023-08-31T12:33:25;101041.44;;;20.79;53.26
71043;BME280;58696;52.134;5.500;2023-08-31T12:35:54;101047.44;;;21.01;54.95
71043;BME280;58696;52.134;5.500;2023-08-31T12:38:20;101041.94;;;21.02;53.43
71043;BME280;58696;52.134;5.500;2023-08-31T12:40:50;101042.34;;;20.89;53.32
71043;BME280;58696;52.134;5.500;2023-08-31T12:43:17;101045.00;;;20.94;55.11
71043;BME280;58696;52.134;5.500;2023-08-31T12:45:46;101048.88;;;20.92;52.54
71043;BME280;58696;52.134;5.500;2023-08-31T12:48:15;101057.13;;;20.57;53.61
71043;BME280;58696;52.134;5.500;2023-08-31T12:50:41;101049.41;;;20.89;57.41
71043;BME280;58696;52.134;5.500;2023-08-31T12:53:08;101044.75;;;20.96;56.75
71043;BME280;58696;52.134;5.500;2023-08-31T12:55:40;101046.94;;;20.82;58.32
71043;BME280;58696;52.134;5.500;2023-08-31T12:58:07;101039.38;;;20.81;55.05
71043;BME280;58696;52.134;5.500;2023-08-31T13:00:34;101053.53;;;20.85;52.96
71043;BME280;58696;52.134;5.500;2023-08-31T13:03:01;101071.88;;;20.90;54.33
71043;BME280;58696;52.134;5.500;2023-08-31T13:05:30;101062.41;;;20.62;53.43
71043;BME280;58696;52.134;5.500;2023-08-31T13:07:56;101057.31;;;20.50;54.36
71043;BME280;58696;52.134;5.500;2023-08-31T13:10:26;101056.00;;;20.74;55.27